M I D A S
Marine Information and Data Acquisition System
Tripno 419 of the Zeeleeuw from 2003-01-24 08:17:28 to 2003-01-24 12:49:23
Back to CruiseResearch ActivitiesStationsMapUnderway DataData graphs

EquipmentUnitsComments
TimeDGPSUTC
LatitudeDGPSDM.mWGS84
LongitudeDGPSDM.mWGS84
SpeedMeteo Stationm/sRelative wind speed
DirectionMeteo StationdegRelative wind direction
TemperatureMeteo Stationdeg CelciusAir temperature
PressureMeteo StationPaAtmospheric pressure
HumidityMeteo Station%Relative humidity
Missing or incorrect values are displayed as -999
Metereological data collected by the RV Zeeleeuw from 2003-01-24 08:17:28 to 2003-01-24 12:49:23
                                                                                    Next 1000 lines
Time Latitude Longitude Speed Direction Temperature Pressure Humidity
2003-01-24 08:17:34 51°13.602 2°56.071 2.1 93 2.2 103750 88
2003-01-24 08:17:39 51°13.604 2°56.065 1.9 81 2.2 103750 88
2003-01-24 08:17:44 51°13.606 2°56.058 1.8 81 2.3 103750 88
2003-01-24 08:17:49 51°13.608 2°56.051 2.2 88 2.3 103750 88
2003-01-24 08:17:54 51°13.609 2°56.043 2.2 73 2.2 103750 87
2003-01-24 08:17:59 51°13.611 2°56.036 2.5 78 2.2 103750 87
2003-01-24 08:18:04 51°13.614 2°56.028 2.3 69 2.3 103750 87
2003-01-24 08:18:09 51°13.616 2°56.019 2.6 77 2.3 103750 87
2003-01-24 08:18:13 51°13.617 2°56.013 2.3 86 2.2 103750 87
2003-01-24 08:18:19 51°13.62 2°56.003 2.8 78 2.2 103750 87
2003-01-24 08:18:23 51°13.621 2°55.996 2.5 95 2.2 103750 87
2003-01-24 08:18:29 51°13.624 2°55.986 2.4 88 2.2 103750 87
2003-01-24 08:18:33 51°13.626 2°55.979 2.4 71 2.2 103750 87
2003-01-24 08:18:39 51°13.629 2°55.969 2.4 77 2.2 103750 87
2003-01-24 08:18:43 51°13.631 2°55.962 2.9 76 2.2 103760 87
2003-01-24 08:18:49 51°13.633 2°55.951 2.8 86 2.2 103760 87
2003-01-24 08:18:53 51°13.635 2°55.944 2.4 91 2.2 103750 87
2003-01-24 08:18:59 51°13.638 2°55.933 2.9 62 2.2 103750 87
2003-01-24 08:19:03 51°13.641 2°55.926 3.2 64 2.2 103750 87
2003-01-24 08:19:09 51°13.644 2°55.916 2.4 83 2.2 103750 87
2003-01-24 08:19:14 51°13.647 2°55.907 3 57 2.2 103760 87
2003-01-24 08:19:19 51°13.65 2°55.898 2.8 62 2.2 103760 87
2003-01-24 08:19:23 51°13.652 2°55.89 2.6 60 2.2 103760 87
2003-01-24 08:19:29 51°13.655 2°55.88 2.9 71 2.2 103760 87
2003-01-24 08:19:32 51°13.657 2°55.875 2.5 78 2.2 103760 87
2003-01-24 08:19:41 51°13.662 2°55.859 3.1 85 2.2 103760 87
2003-01-24 08:19:45 51°13.664 2°55.852 2.7 83 2.2 103760 87
2003-01-24 08:19:51 51°13.667 2°55.842 2.7 86 2.2 103760 87
2003-01-24 08:19:55 51°13.669 2°55.835 3 85 2.2 103760 87
2003-01-24 08:20:01 51°13.672 2°55.825 3.2 84 2.2 103760 87
2003-01-24 08:20:04 51°13.674 2°55.82 2.8 93 2.2 103760 87
2003-01-24 08:20:11 51°13.677 2°55.808 2.6 74 2.2 103760 87
2003-01-24 08:20:16 51°13.68 2°55.8 2.5 78 2.2 103760 87
2003-01-24 08:20:21 51°13.682 2°55.792 2.2 98 2.2 103760 87
2003-01-24 08:20:26 51°13.684 2°55.784 2.7 62 2.2 103760 87
2003-01-24 08:20:31 51°13.686 2°55.778 2 78 2.2 103760 87
2003-01-24 08:20:35 51°13.687 2°55.773 1.7 81 2.2 103760 87
2003-01-24 08:20:41 51°13.688 2°55.767 1.4 100 2.2 103760 87
2003-01-24 08:20:45 51°13.689 2°55.764 1.9 112 2.2 103760 87
2003-01-24 08:20:51 51°13.69 2°55.76 1.2 49 2.2 103760 87
2003-01-24 08:20:55 51°13.69 2°55.757 1 124 2.2 103760 87
2003-01-24 08:21:01 51°13.691 2°55.755 1.5 131 2.2 103760 87
2003-01-24 08:21:04 51°13.692 2°55.754 2.1 135 2.2 103760 87
2003-01-24 08:21:13 51°13.692 2°55.752 1.5 120 2.2 103760 87
2003-01-24 08:21:17 51°13.693 2°55.752 1.8 128 2.2 103760 87
2003-01-24 08:21:23 51°13.694 2°55.752 1.9 98 2.2 103760 87
2003-01-24 08:21:29 51°13.695 2°55.753 1.1 41 2.2 103760 87
2003-01-24 08:21:33 51°13.696 2°55.754 0.9 71 2.2 103760 87
2003-01-24 08:21:38 51°13.697 2°55.755 0.5 84 2.2 103760 87
2003-01-24 08:21:43 51°13.698 2°55.757 1.1 98 2.2 103760 87
2003-01-24 08:21:48 51°13.7 2°55.758 1 92 2.2 103760 87
2003-01-24 08:21:53 51°13.702 2°55.759 1 83 2.2 103760 88
2003-01-24 08:21:58 51°13.704 2°55.761 1 73 2.2 103760 88
2003-01-24 08:22:03 51°13.706 2°55.762 1 101 2.2 103760 88
2003-01-24 08:22:08 51°13.709 2°55.763 1.1 87 2.2 103760 88
2003-01-24 08:22:13 51°13.712 2°55.764 0.8 87 2.2 103760 88
2003-01-24 08:22:18 51°13.715 2°55.764 0.7 86 2.2 103760 88
2003-01-24 08:22:23 51°13.718 2°55.764 0.4 87 2.2 103760 88
2003-01-24 08:22:28 51°13.722 2°55.763 0.4 87 2.2 103760 88
2003-01-24 08:22:31 51°13.724 2°55.763 0.5 85 2.2 103760 88
2003-01-24 08:22:37 51°13.727 2°55.761 0.5 63 2.2 103760 88
2003-01-24 08:22:41 51°13.73 2°55.761 0.3 332 2.2 103760 88
2003-01-24 08:22:47 51°13.732 2°55.759 0.4 359 2.2 103760 88
2003-01-24 08:22:53 51°13.733 2°55.759 0.6 21 2.3 103760 88
2003-01-24 08:22:58 51°13.732 2°55.758 1.2 25 2.3 103760 88
2003-01-24 08:23:03 51°13.731 2°55.758 1.9 19 2.3 103760 88
2003-01-24 08:23:07 51°13.73 2°55.759 2.4 24 2.3 103760 88
2003-01-24 08:23:13 51°13.728 2°55.76 2.2 34 2.3 103760 88
2003-01-24 08:23:17 51°13.725 2°55.761 2 13 2.3 103760 88
2003-01-24 08:23:23 51°13.722 2°55.762 1.9 347 2.3 103760 88
2003-01-24 08:23:27 51°13.72 2°55.763 2.2 29 2.3 103760 88
2003-01-24 08:23:33 51°13.718 2°55.764 2.3 28 2.3 103760 88
2003-01-24 08:23:37 51°13.716 2°55.765 2.6 39 2.3 103760 88
2003-01-24 08:23:43 51°13.714 2°55.766 2.1 19 2.3 103760 88
2003-01-24 08:23:47 51°13.714 2°55.766 3.6 359 2.3 103760 88
2003-01-24 08:23:53 51°13.713 2°55.765 3 22 2.3 103760 88
2003-01-24 08:23:58 51°13.713 2°55.765 2.7 18 2.3 103760 88
2003-01-24 08:24:03 51°13.714 2°55.764 2 358 2.3 103760 88
2003-01-24 08:24:08 51°13.714 2°55.762 1.4 345 2.3 103760 88
2003-01-24 08:24:13 51°13.716 2°55.76 1.1 343 2.3 103760 88
2003-01-24 08:24:17 51°13.717 2°55.758 1.1 310 2.3 103760 88
2003-01-24 08:24:23 51°13.72 2°55.754 1 300 2.3 103760 88
2003-01-24 08:24:27 51°13.723 2°55.75 0.7 324 2.3 103760 88
2003-01-24 08:24:33 51°13.727 2°55.744 0.4 320 2.3 103760 88
2003-01-24 08:24:37 51°13.731 2°55.739 1 266 2.3 103760 88
2003-01-24 08:24:41 51°13.735 2°55.734 1.6 254 2.4 103760 88
2003-01-24 08:24:48 51°13.742 2°55.724 3.3 257 2.4 103760 88
2003-01-24 08:24:53 51°13.748 2°55.716 3.4 255 2.4 103760 88
2003-01-24 08:24:57 51°13.753 2°55.71 4.2 278 2.4 103760 88
2003-01-24 08:25:02 51°13.759 2°55.701 3.4 265 2.4 103760 87
2003-01-24 08:25:07 51°13.766 2°55.693 2.5 280 2.4 103760 87
2003-01-24 08:25:13 51°13.775 2°55.683 2.5 282 2.4 103760 87
2003-01-24 08:25:17 51°13.781 2°55.676 3.1 246 2.4 103760 87
2003-01-24 08:25:22 51°13.788 2°55.668 3.2 247 2.3 103750 87
2003-01-24 08:25:27 51°13.797 2°55.661 3 246 2.3 103750 87
2003-01-24 08:25:32 51°13.805 2°55.654 3 245 2.4 103750 87
2003-01-24 08:25:38 51°13.816 2°55.646 2.8 246 2.4 103750 87
2003-01-24 08:25:43 51°13.824 2°55.639 2.9 235 2.4 103760 87
2003-01-24 08:25:48 51°13.833 2°55.632 2.4 240 2.4 103760 87
2003-01-24 08:25:53 51°13.842 2°55.626 2.1 231 2.4 103750 88
2003-01-24 08:25:57 51°13.849 2°55.62 1.9 252 2.4 103750 88
2003-01-24 08:26:03 51°13.86 2°55.612 1.6 254 2.4 103750 88
2003-01-24 08:26:08 51°13.869 2°55.606 2.1 271 2.4 103750 88
2003-01-24 08:26:13 51°13.878 2°55.599 2.5 257 2.4 103760 88
2003-01-24 08:26:18 51°13.887 2°55.593 2 234 2.4 103760 88
2003-01-24 08:26:23 51°13.896 2°55.586 2.6 237 2.4 103760 88
2003-01-24 08:26:28 51°13.905 2°55.579 3.1 265 2.4 103760 88
2003-01-24 08:26:33 51°13.913 2°55.572 2.9 256 2.4 103750 88
2003-01-24 08:26:38 51°13.922 2°55.565 2.8 276 2.4 103750 88
2003-01-24 08:26:43 51°13.931 2°55.558 2.8 269 2.5 103760 88
2003-01-24 08:26:47 51°13.939 2°55.553 1.9 254 2.5 103760 88
2003-01-24 08:26:53 51°13.949 2°55.545 1.7 269 2.5 103760 88
2003-01-24 08:26:58 51°13.959 2°55.538 3 261 2.5 103760 88
2003-01-24 08:27:03 51°13.968 2°55.532 3.9 271 2.5 103760 88
2003-01-24 08:27:07 51°13.976 2°55.526 2.7 253 2.5 103760 88
2003-01-24 08:27:13 51°13.987 2°55.518 2.5 250 2.5 103760 88
2003-01-24 08:27:17 51°13.995 2°55.513 2.5 250 2.5 103760 88
2003-01-24 08:27:23 51°14.006 2°55.505 2.2 268 2.6 103760 88
2003-01-24 08:27:28 51°14.016 2°55.499 2.5 250 2.6 103760 88
2003-01-24 08:27:33 51°14.025 2°55.493 2.8 252 2.6 103760 88
2003-01-24 08:27:37 51°14.032 2°55.488 2.8 239 2.6 103760 88
2003-01-24 08:27:43 51°14.043 2°55.481 3.2 254 2.6 103760 88
2003-01-24 08:27:48 51°14.051 2°55.474 3 251 2.6 103760 88
2003-01-24 08:27:53 51°14.06 2°55.468 3.5 264 2.6 103760 88
2003-01-24 08:27:58 51°14.069 2°55.461 3.2 259 2.6 103760 88
2003-01-24 08:28:03 51°14.077 2°55.454 2.8 260 2.6 103760 88
2003-01-24 08:28:08 51°14.086 2°55.448 2.8 265 2.6 103760 88
2003-01-24 08:28:13 51°14.095 2°55.441 2.8 253 2.7 103760 88
2003-01-24 08:28:18 51°14.104 2°55.434 3.5 266 2.7 103760 88
2003-01-24 08:28:23 51°14.113 2°55.427 2.9 257 2.7 103760 88
2003-01-24 08:28:25 51°14.117 2°55.425 2.7 263 2.7 103760 88
2003-01-24 08:28:33 51°14.131 2°55.413 3.3 270 2.7 103760 88
2003-01-24 08:28:38 51°14.14 2°55.406 2.9 250 2.7 103760 88
2003-01-24 08:28:43 51°14.149 2°55.399 2.6 257 2.8 103760 88
2003-01-24 08:28:47 51°14.157 2°55.393 2.5 255 2.8 103760 88
2003-01-24 08:28:53 51°14.168 2°55.383 3 255 2.8 103760 88
2003-01-24 08:28:57 51°14.175 2°55.377 3.2 279 2.8 103760 88
2003-01-24 08:29:03 51°14.185 2°55.367 3.5 279 2.8 103750 88
2003-01-24 08:29:08 51°14.194 2°55.358 3.2 258 2.8 103750 88
2003-01-24 08:29:13 51°14.203 2°55.35 3.9 277 2.8 103750 88
2003-01-24 08:29:18 51°14.212 2°55.341 3.8 276 2.8 103750 88
2003-01-24 08:29:23 51°14.22 2°55.332 4.5 291 2.9 103760 88
2003-01-24 08:29:27 51°14.227 2°55.325 4.3 281 2.9 103760 88
2003-01-24 08:29:33 51°14.237 2°55.314 3.9 287 2.9 103750 88
2003-01-24 08:29:37 51°14.244 2°55.306 4.3 281 2.9 103750 88
2003-01-24 08:29:43 51°14.253 2°55.294 3.8 282 3 103760 88
2003-01-24 08:29:48 51°14.262 2°55.284 3.2 283 3 103760 88
2003-01-24 08:29:53 51°14.27 2°55.274 4.4 294 3 103760 88
2003-01-24 08:29:58 51°14.277 2°55.263 4.2 285 3 103760 88
2003-01-24 08:30:03 51°14.285 2°55.252 4.1 290 3.1 103760 88
2003-01-24 08:30:08 51°14.292 2°55.241 3.6 266 3.1 103760 88
2003-01-24 08:30:13 51°14.299 2°55.23 3.8 272 3.1 103750 88
2003-01-24 08:30:18 51°14.306 2°55.218 4.1 254 3.1 103750 88
2003-01-24 08:30:23 51°14.313 2°55.206 4.1 255 3.1 103760 88
2003-01-24 08:30:27 51°14.318 2°55.196 3.9 264 3.1 103760 88
2003-01-24 08:30:33 51°14.326 2°55.18 4 261 3.2 103750 88
2003-01-24 08:30:37 51°14.33 2°55.17 4.3 263 3.2 103750 88
2003-01-24 08:30:43 51°14.337 2°55.154 4.5 266 3.2 103760 88
2003-01-24 08:30:48 51°14.343 2°55.14 4.1 266 3.2 103760 88
2003-01-24 08:30:53 51°14.348 2°55.126 4.1 261 3.3 103760 88
2003-01-24 08:30:57 51°14.352 2°55.114 4 246 3.3 103760 88
2003-01-24 08:31:03 51°14.359 2°55.095 4.2 247 3.3 103760 88
2003-01-24 08:31:07 51°14.364 2°55.081 5.1 248 3.3 103760 88
2003-01-24 08:31:13 51°14.371 2°55.06 5.1 256 3.4 103760 88
2003-01-24 08:31:17 51°14.376 2°55.045 5.9 261 3.4 103760 88
2003-01-24 08:31:23 51°14.383 2°55.021 6 258 3.4 103750 88
2003-01-24 08:31:27 51°14.388 2°55.005 6.6 257 3.4 103750 88
2003-01-24 08:31:33 51°14.395 2°54.979 6.6 259 3.5 103750 88
2003-01-24 08:31:38 51°14.399 2°54.956 7.2 257 3.5 103750 88
2003-01-24 08:31:43 51°14.404 2°54.933 7.8 257 3.5 103750 88
2003-01-24 08:31:48 51°14.408 2°54.909 8.7 260 3.5 103750 88
2003-01-24 08:31:53 51°14.411 2°54.884 7.7 257 3.6 103750 88
2003-01-24 08:31:58 51°14.413 2°54.858 9.2 252 3.6 103750 88
2003-01-24 08:32:03 51°14.413 2°54.831 8.6 259 3.6 103750 88
2003-01-24 08:32:08 51°14.414 2°54.804 8.8 259 3.6 103750 88
2003-01-24 08:32:12 51°14.415 2°54.782 9 259 3.7 103740 88
2003-01-24 08:32:18 51°14.416 2°54.748 8.5 255 3.7 103740 88
2003-01-24 08:32:23 51°14.418 2°54.72 8.7 258 3.7 103740 87
2003-01-24 08:32:28 51°14.418 2°54.691 9.1 259 3.7 103740 87
2003-01-24 08:32:33 51°14.42 2°54.663 9 256 3.7 103740 87
2003-01-24 08:32:37 51°14.421 2°54.64 9.1 255 3.7 103740 87
2003-01-24 08:32:43 51°14.424 2°54.606 9.2 259 3.7 103740 87
2003-01-24 08:32:48 51°14.425 2°54.577 9.4 255 3.7 103740 87
2003-01-24 08:32:53 51°14.427 2°54.548 9.2 255 3.7 103740 87
2003-01-24 08:32:57 51°14.428 2°54.525 9.2 256 3.7 103740 87
2003-01-24 08:33:03 51°14.43 2°54.491 9.1 259 3.7 103740 87
2003-01-24 08:33:08 51°14.431 2°54.462 9.4 257 3.7 103740 87
2003-01-24 08:33:13 51°14.433 2°54.433 9.5 257 3.7 103740 86
2003-01-24 08:33:17 51°14.434 2°54.41 9.1 253 3.7 103740 86
2003-01-24 08:33:23 51°14.436 2°54.375 8.8 253 3.7 103750 86
2003-01-24 08:33:28 51°14.437 2°54.347 8.5 251 3.7 103750 86
2003-01-24 08:33:33 51°14.436 2°54.319 8.8 247 3.7 103740 86
2003-01-24 08:33:37 51°14.435 2°54.296 9.2 248 3.7 103740 86
2003-01-24 08:33:43 51°14.43 2°54.264 8.7 251 3.6 103750 86
2003-01-24 08:33:48 51°14.424 2°54.238 8.9 245 3.6 103750 86
2003-01-24 08:33:53 51°14.417 2°54.213 9.4 245 3.6 103740 85
2003-01-24 08:33:57 51°14.411 2°54.193 9.5 244 3.6 103740 85
2003-01-24 08:34:03 51°14.402 2°54.163 9.8 246 3.6 103740 85
2003-01-24 08:34:07 51°14.396 2°54.143 9.2 242 3.6 103740 85
2003-01-24 08:34:13 51°14.387 2°54.112 9.9 247 3.6 103740 85
2003-01-24 08:34:18 51°14.38 2°54.086 9.8 247 3.6 103740 85
2003-01-24 08:34:23 51°14.373 2°54.061 9.6 241 3.5 103750 85
2003-01-24 08:34:28 51°14.365 2°54.035 9.8 241 3.5 103750 85
2003-01-24 08:34:33 51°14.358 2°54.009 9.6 244 3.5 103740 85
2003-01-24 08:34:38 51°14.35 2°53.984 9.9 243 3.5 103740 85
2003-01-24 08:34:43 51°14.342 2°53.959 9.6 244 3.5 103750 85
2003-01-24 08:34:47 51°14.336 2°53.938 9.6 246 3.5 103750 85
2003-01-24 08:34:53 51°14.327 2°53.907 9.4 244 3.5 103740 85
2003-01-24 08:34:57 51°14.321 2°53.887 9.5 244 3.5 103740 85
2003-01-24 08:35:03 51°14.312 2°53.856 9.4 244 3.5 103740 85
2003-01-24 08:35:08 51°14.304 2°53.83 9.5 248 3.5 103740 85
2003-01-24 08:35:13 51°14.296 2°53.804 8.9 239 3.5 103750 85
2003-01-24 08:35:18 51°14.288 2°53.779 9.5 248 3.5 103750 85
2003-01-24 08:35:23 51°14.28 2°53.753 9.1 241 3.5 103760 85
2003-01-24 08:35:28 51°14.271 2°53.728 9.8 245 3.5 103760 85
2003-01-24 08:35:33 51°14.264 2°53.702 9.4 243 3.5 103760 85
2003-01-24 08:35:38 51°14.254 2°53.677 9.6 239 3.5 103760 85
2003-01-24 08:35:43 51°14.247 2°53.651 10 247 3.5 103760 85
2003-01-24 08:35:48 51°14.238 2°53.625 9.8 244 3.5 103760 85
2003-01-24 08:35:53 51°14.23 2°53.6 10 243 3.5 103760 85
2003-01-24 08:35:58 51°14.223 2°53.574 10.4 247 3.5 103760 85
2003-01-24 08:36:03 51°14.214 2°53.548 9.7 238 3.5 103740 86
2003-01-24 08:36:07 51°14.208 2°53.527 10.4 245 3.5 103740 86
2003-01-24 08:36:12 51°14.199 2°53.501 9.8 242 3.5 103740 86
2003-01-24 08:36:18 51°14.19 2°53.469 9.8 244 3.5 103740 86
2003-01-24 08:36:23 51°14.181 2°53.443 10.7 245 3.6 103750 86
2003-01-24 08:36:28 51°14.173 2°53.416 10.2 245 3.6 103750 86
2003-01-24 08:36:33 51°14.165 2°53.39 9.9 243 3.6 103760 86
2003-01-24 08:36:37 51°14.159 2°53.369 10.2 245 3.6 103760 86
2003-01-24 08:36:43 51°14.149 2°53.336 9.8 239 3.6 103750 86
2003-01-24 08:36:48 51°14.141 2°53.31 9.8 240 3.6 103750 86
2003-01-24 08:36:53 51°14.133 2°53.283 9.9 241 3.6 103750 85
2003-01-24 08:36:57 51°14.126 2°53.262 9.8 244 3.6 103750 85
2003-01-24 08:37:03 51°14.115 2°53.23 9.6 241 3.6 103760 85
2003-01-24 08:37:07 51°14.108 2°53.209 10.5 242 3.6 103760 85
2003-01-24 08:37:13 51°14.098 2°53.177 10.1 238 3.6 103760 85
2003-01-24 08:37:18 51°14.089 2°53.151 10.3 241 3.6 103760 85
2003-01-24 08:37:23 51°14.081 2°53.124 10.7 242 3.6 103750 85
2003-01-24 08:37:28 51°14.072 2°53.098 10.4 242 3.6 103750 85
2003-01-24 08:37:33 51°14.064 2°53.071 10.5 240 3.6 103760 85
2003-01-24 08:37:38 51°14.055 2°53.045 10.3 239 3.6 103760 85
2003-01-24 08:37:43 51°14.046 2°53.019 10 240 3.7 103760 85
2003-01-24 08:37:48 51°14.038 2°52.992 11.1 241 3.7 103760 85
2003-01-24 08:37:53 51°14.028 2°52.965 11.3 240 3.7 103760 85
2003-01-24 08:37:57 51°14.022 2°52.944 10.4 239 3.7 103760 85
2003-01-24 08:38:02 51°14.013 2°52.917 10.8 243 3.7 103750 85
2003-01-24 08:38:08 51°14.003 2°52.885 11 241 3.7 103750 85
2003-01-24 08:38:13 51°13.994 2°52.858 11.1 243 3.7 103760 85
2003-01-24 08:38:18 51°13.986 2°52.831 11.1 244 3.7 103760 85
2003-01-24 08:38:23 51°13.977 2°52.805 10.9 243 3.7 103750 85
2003-01-24 08:38:28 51°13.969 2°52.778 11.2 243 3.7 103750 85
2003-01-24 08:38:33 51°13.961 2°52.751 10.5 244 3.7 103750 85
2003-01-24 08:38:37 51°13.954 2°52.729 11 244 3.7 103750 85
2003-01-24 08:38:43 51°13.944 2°52.697 10.9 243 3.7 103760 85
2003-01-24 08:38:47 51°13.937 2°52.675 10.7 240 3.7 103760 85
2003-01-24 08:38:53 51°13.927 2°52.644 10.5 244 3.7 103760 85
2003-01-24 08:38:57 51°13.92 2°52.623 10.8 242 3.7 103760 85
2003-01-24 08:39:03 51°13.91 2°52.59 11 244 3.7 103750 84
2003-01-24 08:39:08 51°13.902 2°52.563 10.3 243 3.7 103750 84
2003-01-24 08:39:13 51°13.893 2°52.537 10.4 242 3.6 103750 84
2003-01-24 08:39:17 51°13.886 2°52.516 10.9 243 3.6 103750 84
2003-01-24 08:39:23 51°13.875 2°52.484 10.8 238 3.6 103760 84
2003-01-24 08:39:27 51°13.869 2°52.463 10.5 242 3.6 103760 84
2003-01-24 08:39:33 51°13.857 2°52.431 10.4 240 3.6 103760 84
2003-01-24 08:39:37 51°13.85 2°52.41 11.1 241 3.6 103760 84
2003-01-24 08:39:43 51°13.839 2°52.378 11.1 238 3.6 103760 84
2003-01-24 08:39:48 51°13.83 2°52.352 10.9 239 3.6 103760 84
2003-01-24 08:39:53 51°13.821 2°52.324 10.3 239 3.5 103770 84
2003-01-24 08:39:57 51°13.813 2°52.303 10.6 239 3.5 103770 84
2003-01-24 08:40:03 51°13.801 2°52.271 11.4 240 3.5 103760 84
2003-01-24 08:40:08 51°13.793 2°52.243 10.1 240 3.5 103760 84
2003-01-24 08:40:13 51°13.782 2°52.218 11.7 237 3.5 103770 84
2003-01-24 08:40:17 51°13.776 2°52.195 11.6 238 3.5 103770 84
2003-01-24 08:40:23 51°13.764 2°52.163 11 237 3.5 103760 84
2003-01-24 08:40:28 51°13.755 2°52.135 11.4 240 3.5 103760 84
2003-01-24 08:40:33 51°13.745 2°52.108 10.8 238 3.5 103760 84
2003-01-24 08:40:37 51°13.737 2°52.086 11.4 239 3.5 103760 84
2003-01-24 08:40:41 51°13.73 2°52.064 10.9 241 3.5 103760 84
2003-01-24 08:40:47 51°13.719 2°52.032 10.5 240 3.5 103760 84
2003-01-24 08:40:53 51°13.708 2°51.998 11 242 3.3 103760 84
2003-01-24 08:40:58 51°13.699 2°51.97 10.5 243 3.3 103760 84
2003-01-24 08:41:03 51°13.69 2°51.943 10.6 240 3.5 103750 84
2003-01-24 08:41:08 51°13.681 2°51.915 10.3 246 3.5 103750 84
2003-01-24 08:41:13 51°13.672 2°51.886 10.4 241 3.5 103770 84
2003-01-24 08:41:17 51°13.665 2°51.864 11 242 3.5 103770 84
2003-01-24 08:41:23 51°13.655 2°51.83 10.7 243 3.5 103780 84
2003-01-24 08:41:28 51°13.645 2°51.802 10.9 242 3.5 103780 84
2003-01-24 08:41:33 51°13.636 2°51.774 11.2 240 3.4 103770 84
2003-01-24 08:41:38 51°13.628 2°51.745 11.2 242 3.4 103770 84
2003-01-24 08:41:41 51°13.623 2°51.728 11.1 239 3.5 103770 85
2003-01-24 08:41:48 51°13.611 2°51.689 11 241 3.5 103770 85
2003-01-24 08:41:53 51°13.601 2°51.66 11.3 242 3.5 103750 85
2003-01-24 08:41:57 51°13.594 2°51.637 11.2 242 3.5 103750 85
2003-01-24 08:42:03 51°13.584 2°51.604 10.5 239 3.5 103760 85
2003-01-24 08:42:08 51°13.574 2°51.576 10.8 243 3.5 103760 85
2003-01-24 08:42:13 51°13.566 2°51.547 10.6 240 3.5 103750 85
2003-01-24 08:42:17 51°13.558 2°51.525 11 243 3.5 103750 85
2003-01-24 08:42:23 51°13.548 2°51.491 10.4 242 3.6 103770 85
2003-01-24 08:42:28 51°13.539 2°51.462 10.8 243 3.6 103770 85
2003-01-24 08:42:33 51°13.531 2°51.434 10.2 243 3.6 103750 85
2003-01-24 08:42:37 51°13.524 2°51.411 10.6 243 3.6 103750 85
2003-01-24 08:42:43 51°13.514 2°51.377 10.5 245 3.6 103760 85
2003-01-24 08:42:48 51°13.506 2°51.347 10.6 245 3.6 103760 85
2003-01-24 08:42:53 51°13.498 2°51.318 10.6 241 3.7 103760 85
2003-01-24 08:42:57 51°13.491 2°51.295 10.6 241 3.7 103760 85
2003-01-24 08:43:03 51°13.481 2°51.261 10.3 238 3.7 103760 85
2003-01-24 08:43:08 51°13.472 2°51.233 10 233 3.7 103760 85
2003-01-24 08:43:13 51°13.464 2°51.203 11.2 238 3.7 103760 86
2003-01-24 08:43:17 51°13.457 2°51.18 10.6 237 3.7 103760 86
2003-01-24 08:43:23 51°13.447 2°51.145 11 239 3.8 103760 86
2003-01-24 08:43:28 51°13.439 2°51.117 11.2 235 3.8 103760 86
2003-01-24 08:43:33 51°13.43 2°51.088 11.4 242 3.8 103760 86
2003-01-24 08:43:38 51°13.422 2°51.059 11.8 237 3.8 103760 86
2003-01-24 08:43:43 51°13.413 2°51.03 10.9 236 3.9 103760 86
2003-01-24 08:43:48 51°13.404 2°51.002 11.3 237 3.9 103760 86
2003-01-24 08:43:53 51°13.396 2°50.973 11.5 233 4 103770 86
2003-01-24 08:43:58 51°13.386 2°50.945 11.9 236 4 103770 86
2003-01-24 08:44:03 51°13.378 2°50.916 11.6 234 4 103770 86
2003-01-24 08:44:08 51°13.369 2°50.888 11.7 234 4 103770 86
2003-01-24 08:44:13 51°13.361 2°50.859 12.2 238 4 103770 86
2003-01-24 08:44:17 51°13.353 2°50.836 11.6 233 4 103770 86
2003-01-24 08:44:23 51°13.344 2°50.801 12.2 237 4.1 103760 86
2003-01-24 08:44:28 51°13.335 2°50.772 11.9 234 4.1 103760 86
2003-01-24 08:44:33 51°13.326 2°50.743 11.6 237 4.1 103770 86
2003-01-24 08:44:38 51°13.318 2°50.714 11.8 235 4.1 103770 86
2003-01-24 08:44:43 51°13.31 2°50.685 12.1 234 4.2 103750 86
2003-01-24 08:44:48 51°13.301 2°50.656 11.1 232 4.2 103750 86
2003-01-24 08:44:53 51°13.293 2°50.627 11.3 237 4.2 103770 86
2003-01-24 08:44:58 51°13.284 2°50.598 12 234 4.2 103770 86
2003-01-24 08:45:03 51°13.275 2°50.569 12.1 236 4.2 103760 86
2003-01-24 08:45:07 51°13.269 2°50.546 12.2 235 4.2 103760 86
2003-01-24 08:45:13 51°13.258 2°50.511 12.5 237 4.3 103760 86
2003-01-24 08:45:18 51°13.25 2°50.482 11.9 237 4.3 103760 86
2003-01-24 08:45:23 51°13.24 2°50.454 13 235 4.3 103760 86
2003-01-24 08:45:28 51°13.233 2°50.424 12.6 234 4.3 103760 86
2003-01-24 08:45:33 51°13.223 2°50.396 12.3 235 4.4 103780 86
2003-01-24 08:45:38 51°13.215 2°50.367 12.5 235 4.4 103780 86
2003-01-24 08:45:43 51°13.205 2°50.339 12.4 236 4.4 103770 86
2003-01-24 08:45:47 51°13.197 2°50.316 11.8 231 4.4 103770 86
2003-01-24 08:45:53 51°13.186 2°50.282 12 237 4.4 103770 85
2003-01-24 08:45:57 51°13.179 2°50.259 11.6 234 4.4 103770 85
2003-01-24 08:46:03 51°13.166 2°50.226 12.4 236 4.5 103770 85
2003-01-24 08:46:07 51°13.159 2°50.203 12 238 4.5 103770 85
2003-01-24 08:46:13 51°13.147 2°50.17 11.5 234 4.5 103770 85
2003-01-24 08:46:18 51°13.137 2°50.142 12.7 236 4.5 103770 85
2003-01-24 08:46:23 51°13.127 2°50.114 12.3 233 4.5 103770 85
2003-01-24 08:46:28 51°13.117 2°50.087 12.5 233 4.5 103770 85
2003-01-24 08:46:33 51°13.107 2°50.059 12.8 235 4.6 103780 85
2003-01-24 08:46:37 51°13.098 2°50.037 12.7 231 4.6 103780 85
2003-01-24 08:46:43 51°13.086 2°50.004 12.7 233 4.6 103780 85
2003-01-24 08:46:48 51°13.075 2°49.977 12.9 232 4.6 103780 85
2003-01-24 08:46:53 51°13.064 2°49.949 12.2 234 4.6 103770 85
2003-01-24 08:46:57 51°13.056 2°49.927 12.3 232 4.6 103770 85
2003-01-24 08:47:03 51°13.044 2°49.894 12.5 235 4.6 103760 85
2003-01-24 08:47:07 51°13.036 2°49.872 12.2 236 4.6 103760 85
2003-01-24 08:47:13 51°13.023 2°49.838 12.2 238 4.6 103780 85
2003-01-24 08:47:17 51°13.015 2°49.816 11.9 237 4.6 103780 85
2003-01-24 08:47:23 51°13.002 2°49.783 11.6 236 4.6 103760 85
2003-01-24 08:47:28 51°12.992 2°49.755 12 233 4.6 103760 85
2003-01-24 08:47:33 51°12.983 2°49.727 11.5 237 4.6 103770 84
2003-01-24 08:47:37 51°12.974 2°49.705 12 235 4.6 103770 84
2003-01-24 08:47:43 51°12.963 2°49.671 11.7 232 4.6 103770 84
2003-01-24 08:47:47 51°12.954 2°49.65 11.5 236 4.6 103770 84
2003-01-24 08:47:53 51°12.941 2°49.616 11.9 235 4.6 103760 84
2003-01-24 08:47:58 51°12.931 2°49.588 11.7 238 4.6 103760 84
2003-01-24 08:48:03 51°12.921 2°49.56 11.3 232 4.6 103760 84
2003-01-24 08:48:07 51°12.914 2°49.538 11.9 238 4.6 103760 84
2003-01-24 08:48:13 51°12.901 2°49.505 11.5 235 4.6 103780 84
2003-01-24 08:48:17 51°12.893 2°49.483 11.7 236 4.6 103780 84
2003-01-24 08:48:23 51°12.881 2°49.449 11 235 4.6 103780 84
2003-01-24 08:48:27 51°12.872 2°49.427 11.1 235 4.6 103780 84
2003-01-24 08:48:33 51°12.861 2°49.393 11.4 235 4.7 103780 84
2003-01-24 08:48:38 51°12.85 2°49.367 11.5 237 4.7 103780 84
2003-01-24 08:48:43 51°12.841 2°49.338 10.9 235 4.7 103760 84
2003-01-24 08:48:48 51°12.83 2°49.311 11.8 235 4.7 103760 84
2003-01-24 08:48:53 51°12.821 2°49.282 11.7 237 4.7 103760 84
2003-01-24 08:48:58 51°12.81 2°49.256 11.6 232 4.7 103760 84
2003-01-24 08:49:03 51°12.801 2°49.227 10.9 239 4.7 103760 84
2003-01-24 08:49:07 51°12.792 2°49.206 11.5 233 4.7 103760 84
2003-01-24 08:49:12 51°12.782 2°49.177 11.6 238 4.7 103760 84
2003-01-24 08:49:18 51°12.77 2°49.144 11.6 236 4.7 103760 84
2003-01-24 08:49:23 51°12.76 2°49.116 11.3 238 4.7 103760 84
2003-01-24 08:49:28 51°12.749 2°49.089 11.4 232 4.7 103760 84
2003-01-24 08:49:33 51°12.739 2°49.06 11.6 239 4.7 103770 84
2003-01-24 08:49:37 51°12.731 2°49.038 11.5 234 4.7 103770 84
2003-01-24 08:49:43 51°12.719 2°49.005 11.5 236 4.7 103770 84
2003-01-24 08:49:48 51°12.709 2°48.977 12.3 235 4.7 103770 84
2003-01-24 08:49:53 51°12.698 2°48.949 11.9 234 4.8 103770 84
2003-01-24 08:49:58 51°12.688 2°48.921 12.3 235 4.8 103770 84
2003-01-24 08:50:03 51°12.678 2°48.893 12 232 4.8 103780 84
2003-01-24 08:50:06 51°12.671 2°48.877 11.5 233 4.8 103780 84
2003-01-24 08:50:13 51°12.656 2°48.839 11.5 237 4.8 103770 84
2003-01-24 08:50:17 51°12.648 2°48.816 11.5 233 4.8 103770 84
2003-01-24 08:50:23 51°12.636 2°48.783 11.7 235 4.8 103780 84
2003-01-24 08:50:28 51°12.627 2°48.755 11.3 235 4.8 103780 84
2003-01-24 08:50:33 51°12.616 2°48.726 11.5 235 4.8 103780 84
2003-01-24 08:50:37 51°12.608 2°48.703 11.8 233 4.8 103780 84
2003-01-24 08:50:43 51°12.597 2°48.67 11.5 237 4.8 103780 84
2003-01-24 08:50:48 51°12.587 2°48.642 11.5 235 4.8 103780 84
2003-01-24 08:50:53 51°12.577 2°48.613 11.3 237 4.8 103780 84
2003-01-24 08:50:58 51°12.567 2°48.584 11.3 236 4.8 103780 84
2003-01-24 08:51:03 51°12.557 2°48.557 11.7 234 4.8 103770 84
2003-01-24 08:51:07 51°12.55 2°48.535 11.8 239 4.8 103770 84
2003-01-24 08:51:13 51°12.536 2°48.501 11.6 234 4.8 103780 84
2003-01-24 08:51:18 51°12.526 2°48.474 11.4 232 4.8 103780 84
2003-01-24 08:51:23 51°12.515 2°48.447 11.4 233 4.8 103770 84
2003-01-24 08:51:28 51°12.504 2°48.42 11.5 234 4.8 103770 84
2003-01-24 08:51:33 51°12.493 2°48.392 11.6 233 4.8 103790 84
2003-01-24 08:51:38 51°12.482 2°48.365 11.8 234 4.8 103790 84
2003-01-24 08:51:43 51°12.471 2°48.337 12.2 233 4.8 103780 84
2003-01-24 08:51:48 51°12.461 2°48.31 11.6 236 4.8 103780 84
2003-01-24 08:51:53 51°12.45 2°48.282 11.2 233 4.8 103770 84
2003-01-24 08:51:58 51°12.439 2°48.255 11.2 235 4.8 103770 84
2003-01-24 08:52:03 51°12.429 2°48.228 11.2 233 4.8 103780 84
2003-01-24 08:52:07 51°12.42 2°48.207 11.4 232 4.8 103780 84
2003-01-24 08:52:13 51°12.407 2°48.174 11.2 237 4.8 103780 84
2003-01-24 08:52:17 51°12.397 2°48.152 11.8 230 4.8 103780 84
2003-01-24 08:52:23 51°12.384 2°48.119 11.5 236 4.8 103780 84
2003-01-24 08:52:28 51°12.374 2°48.092 11.3 234 4.8 103780 84
2003-01-24 08:52:33 51°12.362 2°48.065 11.9 236 4.8 103790 84
2003-01-24 08:52:38 51°12.352 2°48.036 11 237 4.8 103790 84
2003-01-24 08:52:43 51°12.341 2°48.01 11.8 236 4.8 103770 84
2003-01-24 08:52:47 51°12.333 2°47.987 11.3 235 4.8 103770 84
2003-01-24 08:52:53 51°12.319 2°47.955 11 235 4.8 103790 84
2003-01-24 08:52:57 51°12.311 2°47.933 11.6 234 4.8 103790 84
2003-01-24 08:53:03 51°12.298 2°47.901 11.5 237 4.8 103780 84
2003-01-24 08:53:08 51°12.288 2°47.873 11.9 236 4.8 103780 84
2003-01-24 08:53:13 51°12.277 2°47.845 11.8 233 4.8 103780 84
2003-01-24 08:53:17 51°12.269 2°47.823 11.6 237 4.8 103780 84
2003-01-24 08:53:23 51°12.256 2°47.791 11.7 234 4.8 103780 84
2003-01-24 08:53:27 51°12.248 2°47.769 12 234 4.8 103780 84
2003-01-24 08:53:33 51°12.235 2°47.736 11.1 237 4.8 103780 84
2003-01-24 08:53:38 51°12.224 2°47.708 11.2 233 4.8 103780 84
2003-01-24 08:53:43 51°12.214 2°47.68 11.1 233 4.8 103790 84
2003-01-24 08:53:48 51°12.203 2°47.654 11.5 235 4.8 103790 84
2003-01-24 08:53:53 51°12.193 2°47.625 12.2 233 4.8 103770 84
2003-01-24 08:53:58 51°12.182 2°47.597 11.9 235 4.8 103770 84
2003-01-24 08:54:03 51°12.172 2°47.569 11.7 231 4.8 103780 84
2003-01-24 08:54:08 51°12.16 2°47.542 12 235 4.8 103780 84
2003-01-24 08:54:13 51°12.15 2°47.514 11.9 234 4.8 103790 84
2003-01-24 08:54:17 51°12.141 2°47.492 11.7 235 4.8 103790 84
2003-01-24 08:54:23 51°12.129 2°47.459 11.2 233 4.8 103790 83
2003-01-24 08:54:28 51°12.118 2°47.431 10.4 239 4.8 103790 83
2003-01-24 08:54:33 51°12.108 2°47.403 11.3 231 4.8 103790 83
2003-01-24 08:54:37 51°12.099 2°47.381 11.4 236 4.8 103790 83
2003-01-24 08:54:43 51°12.086 2°47.347 11.2 233 4.8 103790 83
2003-01-24 08:54:48 51°12.075 2°47.32 11.2 236 4.8 103790 83
2003-01-24 08:54:53 51°12.065 2°47.292 11.4 238 4.8 103790 83
2003-01-24 08:54:58 51°12.054 2°47.265 11.5 238 4.8 103790 83
2003-01-24 08:55:03 51°12.044 2°47.237 12 238 4.8 103790 83
2003-01-24 08:55:08 51°12.033 2°47.209 11.5 237 4.8 103790 83
2003-01-24 08:55:13 51°12.022 2°47.181 11.6 236 4.8 103780 84
2003-01-24 08:55:17 51°12.013 2°47.159 11.3 236 4.8 103780 84
2003-01-24 08:55:23 51°12 2°47.126 11.6 237 4.8 103790 83
2003-01-24 08:55:28 51°11.99 2°47.098 11.1 237 4.8 103790 83
2003-01-24 08:55:33 51°11.979 2°47.071 11.5 238 4.8 103790 83
2003-01-24 08:55:37 51°11.97 2°47.048 11.1 238 4.8 103790 83
2003-01-24 08:55:43 51°11.957 2°47.015 11.1 236 4.8 103780 83
2003-01-24 08:55:48 51°11.947 2°46.987 11.7 236 4.8 103780 83
2003-01-24 08:55:53 51°11.936 2°46.959 11.5 236 4.8 103780 83
2003-01-24 08:55:57 51°11.927 2°46.937 11.5 237 4.8 103780 83
2003-01-24 08:56:02 51°11.917 2°46.91 11.2 237 4.7 103780 83
2003-01-24 08:56:08 51°11.904 2°46.877 11.5 235 4.7 103780 83
2003-01-24 08:56:13 51°11.893 2°46.85 11.7 239 4.7 103780 83
2003-01-24 08:56:17 51°11.885 2°46.827 11 235 4.7 103780 83
2003-01-24 08:56:23 51°11.872 2°46.795 11.7 237 4.7 103780 83
2003-01-24 08:56:28 51°11.861 2°46.767 11.4 236 4.7 103780 83
2003-01-24 08:56:33 51°11.85 2°46.74 12 237 4.7 103770 83
2003-01-24 08:56:38 51°11.839 2°46.712 11.6 238 4.7 103770 83
2003-01-24 08:56:43 51°11.828 2°46.686 11.4 234 4.7 103780 83
2003-01-24 08:56:48 51°11.818 2°46.658 11.9 236 4.7 103780 83
2003-01-24 08:56:53 51°11.806 2°46.631 11.1 236 4.7 103780 83
2003-01-24 08:56:58 51°11.796 2°46.603 11.5 236 4.7 103780 83
2003-01-24 08:57:03 51°11.784 2°46.577 11.8 234 4.7 103780 83
2003-01-24 08:57:07 51°11.776 2°46.554 11.6 237 4.7 103780 83
2003-01-24 08:57:13 51°11.763 2°46.521 11.7 236 4.7 103790 83
2003-01-24 08:57:17 51°11.754 2°46.5 11.4 236 4.7 103790 83
2003-01-24 08:57:23 51°11.742 2°46.467 11 235 4.7 103790 83
2003-01-24 08:57:28 51°11.73 2°46.441 11.1 236 4.7 103790 83
2003-01-24 08:57:33 51°11.719 2°46.413 11.5 236 4.6 103790 83
2003-01-24 08:57:38 51°11.708 2°46.386 11.9 236 4.6 103790 83
2003-01-24 08:57:43 51°11.697 2°46.359 11.5 235 4.6 103780 83
2003-01-24 08:57:48 51°11.687 2°46.332 11.6 239 4.6 103780 83
2003-01-24 08:57:53 51°11.675 2°46.305 11.7 234 4.6 103780 83
2003-01-24 08:57:57 51°11.667 2°46.283 12 237 4.6 103780 83
2003-01-24 08:58:03 51°11.654 2°46.25 11.2 238 4.6 103790 83
2003-01-24 08:58:08 51°11.643 2°46.222 11.5 238 4.6 103790 83
2003-01-24 08:58:13 51°11.633 2°46.196 11 239 4.6 103790 84
2003-01-24 08:58:17 51°11.624 2°46.174 11.6 235 4.6 103790 84
2003-01-24 08:58:23 51°11.611 2°46.141 11.7 239 4.6 103790 84
2003-01-24 08:58:28 51°11.601 2°46.113 10.9 237 4.6 103790 84
2003-01-24 08:58:33 51°11.59 2°46.086 11.7 238 4.5 103770 84
2003-01-24 08:58:38 51°11.58 2°46.059 11 237 4.5 103770 84
2003-01-24 08:58:43 51°11.569 2°46.032 10.8 236 4.5 103780 83
2003-01-24 08:58:48 51°11.558 2°46.005 11.1 237 4.5 103780 83
2003-01-24 08:58:53 51°11.547 2°45.977 11.1 238 4.5 103770 83
2003-01-24 08:58:58 51°11.536 2°45.951 11.2 236 4.5 103770 83
2003-01-24 08:59:03 51°11.526 2°45.922 11.3 233 4.5 103790 84
2003-01-24 08:59:08 51°11.514 2°45.896 12.2 236 4.5 103790 84
2003-01-24 08:59:13 51°11.504 2°45.868 11.8 237 4.5 103790 84
2003-01-24 08:59:18 51°11.493 2°45.842 11.4 237 4.5 103790 84
2003-01-24 08:59:23 51°11.483 2°45.814 11.5 239 4.5 103800 84
2003-01-24 08:59:27 51°11.473 2°45.792 11.1 237 4.5 103800 84
2003-01-24 08:59:33 51°11.461 2°45.759 11.2 238 4.5 103790 84
2003-01-24 08:59:38 51°11.45 2°45.733 11 238 4.5 103790 84
2003-01-24 08:59:43 51°11.439 2°45.705 11.4 242 4.5 103780 84
2003-01-24 08:59:48 51°11.429 2°45.676 11.3 238 4.5 103780 84
2003-01-24 08:59:53 51°11.42 2°45.648 11.4 243 4.5 103780 84
2003-01-24 08:59:57 51°11.413 2°45.625 11.1 242 4.5 103780 84
2003-01-24 09:00:03 51°11.403 2°45.59 11 242 4.5 103810 84
2003-01-24 09:00:08 51°11.394 2°45.561 11 239 4.5 103810 84
2003-01-24 09:00:13 51°11.386 2°45.531 10.9 241 4.5 103800 84
2003-01-24 09:00:17 51°11.379 2°45.508 11.2 241 4.5 103800 84
2003-01-24 09:00:23 51°11.37 2°45.471 10.8 244 4.5 103800 84
2003-01-24 09:00:28 51°11.363 2°45.442 10.8 240 4.5 103800 84
2003-01-24 09:00:33 51°11.355 2°45.411 10.9 242 4.4 103800 84
2003-01-24 09:00:37 51°11.349 2°45.387 11.3 241 4.4 103800 84
2003-01-24 09:00:43 51°11.341 2°45.351 11.1 242 4.5 103800 84
2003-01-24 09:00:48 51°11.334 2°45.321 11.7 243 4.5 103800 84
2003-01-24 09:00:53 51°11.328 2°45.29 11.2 242 4.5 103800 84
2003-01-24 09:00:57 51°11.322 2°45.265 10.7 242 4.5 103800 84
2003-01-24 09:01:03 51°11.314 2°45.228 10.3 245 4.5 103800 84
2003-01-24 09:01:08 51°11.308 2°45.197 10.6 241 4.5 103800 84
2003-01-24 09:01:13 51°11.301 2°45.166 11.2 240 4.5 103800 84
2003-01-24 09:01:18 51°11.294 2°45.136 11.2 240 4.5 103800 84
2003-01-24 09:01:22 51°11.289 2°45.111 11.2 240 4.5 103800 85
2003-01-24 09:01:27 51°11.281 2°45.081 11.5 240 4.5 103800 85
2003-01-24 09:01:32 51°11.274 2°45.051 11.4 242 4.6 103800 85
2003-01-24 09:01:38 51°11.266 2°45.014 11.5 242 4.6 103800 85
2003-01-24 09:01:43 51°11.259 2°44.983 11.6 240 4.6 103800 85
2003-01-24 09:01:48 51°11.252 2°44.953 11.4 239 4.6 103800 85
2003-01-24 09:01:53 51°11.245 2°44.923 11.6 241 4.6 103790 85
2003-01-24 09:01:58 51°11.237 2°44.893 11.6 240 4.6 103790 85
2003-01-24 09:02:02 51°11.232 2°44.868 11.5 241 4.6 103800 85
2003-01-24 09:02:08 51°11.222 2°44.833 11.1 244 4.6 103800 85
2003-01-24 09:02:13 51°11.215 2°44.802 11.8 240 4.6 103800 85
2003-01-24 09:02:17 51°11.209 2°44.778 11.1 240 4.6 103800 85
2003-01-24 09:02:23 51°11.201 2°44.742 11.4 236 4.6 103800 85
2003-01-24 09:02:28 51°11.193 2°44.712 11.3 239 4.6 103800 85
2003-01-24 09:02:33 51°11.186 2°44.681 11.4 237 4.6 103800 85
2003-01-24 09:02:37 51°11.181 2°44.656 11.3 240 4.6 103800 85
2003-01-24 09:02:42 51°11.175 2°44.625 11.3 239 4.6 103800 85
2003-01-24 09:02:48 51°11.168 2°44.588 10.4 242 4.6 103800 85
2003-01-24 09:02:53 51°11.161 2°44.558 11.4 241 4.6 103800 85
2003-01-24 09:02:57 51°11.157 2°44.533 11.8 241 4.6 103800 85
2003-01-24 09:03:03 51°11.149 2°44.496 11.7 237 4.6 103800 85
2003-01-24 09:03:08 51°11.143 2°44.464 11.1 241 4.6 103800 85
2003-01-24 09:03:13 51°11.137 2°44.434 10.6 237 4.6 103800 85
2003-01-24 09:03:18 51°11.131 2°44.404 10.7 241 4.6 103800 85
2003-01-24 09:03:22 51°11.126 2°44.379 11.2 241 4.6 103810 85
2003-01-24 09:03:27 51°11.12 2°44.347 11.5 240 4.6 103810 85
2003-01-24 09:03:33 51°11.112 2°44.31 11 238 4.6 103800 85
2003-01-24 09:03:37 51°11.108 2°44.286 11.3 240 4.6 103800 85
2003-01-24 09:03:43 51°11.1 2°44.248 11.3 237 4.6 103800 85
2003-01-24 09:03:48 51°11.094 2°44.217 11.4 239 4.6 103800 85
2003-01-24 09:03:53 51°11.089 2°44.186 10.6 239 4.6 103800 85
2003-01-24 09:03:57 51°11.084 2°44.161 11 237 4.6 103800 85
2003-01-24 09:04:02 51°11.078 2°44.13 11.2 241 4.6 103810 85
2003-01-24 09:04:08 51°11.071 2°44.092 10.9 240 4.6 103810 85
2003-01-24 09:04:13 51°11.065 2°44.061 11.2 238 4.6 103800 85
2003-01-24 09:04:17 51°11.06 2°44.037 11.1 241 4.6 103800 85
2003-01-24 09:04:23 51°11.053 2°43.999 11.3 239 4.6 103810 85
2003-01-24 09:04:28 51°11.047 2°43.968 11 243 4.6 103810 85
2003-01-24 09:04:33 51°11.041 2°43.937 11.3 237 4.6 103800 86
2003-01-24 09:04:38 51°11.035 2°43.905 11.3 239 4.6 103800 86
2003-01-24 09:04:42 51°11.031 2°43.88 11.3 241 4.7 103800 86
2003-01-24 09:04:48 51°11.024 2°43.843 11.3 239 4.7 103800 86
2003-01-24 09:04:53 51°11.018 2°43.812 10.9 238 4.7 103800 86
2003-01-24 09:04:57 51°11.013 2°43.787 10.9 242 4.7 103800 86
2003-01-24 09:05:03 51°11.006 2°43.75 10.6 238 4.7 103800 86
2003-01-24 09:05:08 51°11 2°43.719 11.4 238 4.7 103800 86
2003-01-24 09:05:13 51°10.995 2°43.687 11.4 240 4.7 103800 86
2003-01-24 09:05:18 51°10.989 2°43.656 11.3 241 4.7 103800 86
2003-01-24 09:05:23 51°10.983 2°43.625 11.7 239 4.7 103800 86
2003-01-24 09:05:27 51°10.978 2°43.6 11.4 238 4.7 103800 86
2003-01-24 09:05:33 51°10.971 2°43.563 11.7 238 4.7 103800 86
2003-01-24 09:05:38 51°10.966 2°43.532 11.6 240 4.7 103800 86
2003-01-24 09:05:43 51°10.96 2°43.501 11.7 239 4.7 103800 86
2003-01-24 09:05:47 51°10.956 2°43.476 11.3 242 4.7 103800 86
2003-01-24 09:05:53 51°10.949 2°43.438 11.2 237 4.7 103800 86
2003-01-24 09:05:58 51°10.944 2°43.406 11 238 4.7 103800 86
2003-01-24 09:06:03 51°10.939 2°43.375 11 237 4.7 103800 86
2003-01-24 09:06:08 51°10.933 2°43.344 11.1 240 4.7 103800 86
2003-01-24 09:06:13 51°10.927 2°43.313 11.8 240 4.7 103810 86
2003-01-24 09:06:17 51°10.923 2°43.287 11.3 239 4.7 103810 86
2003-01-24 09:06:23 51°10.916 2°43.25 11.3 244 4.7 103800 86
2003-01-24 09:06:28 51°10.911 2°43.219 11.3 242 4.7 103800 86
2003-01-24 09:06:33 51°10.905 2°43.188 11.7 242 4.8 103810 86
2003-01-24 09:06:37 51°10.901 2°43.162 11.2 240 4.8 103810 86
2003-01-24 09:06:43 51°10.894 2°43.125 11.1 243 4.8 103800 86
2003-01-24 09:06:48 51°10.889 2°43.094 11.2 242 4.8 103800 86
2003-01-24 09:06:53 51°10.883 2°43.064 10.7 241 4.8 103810 86
2003-01-24 09:06:58 51°10.877 2°43.032 10.8 241 4.8 103810 86
2003-01-24 09:07:02 51°10.873 2°43.007 11.1 242 4.7 103800 86
2003-01-24 09:07:08 51°10.866 2°42.969 11.4 243 4.7 103800 86
2003-01-24 09:07:13 51°10.861 2°42.938 11.2 243 4.8 103800 86
2003-01-24 09:07:18 51°10.856 2°42.906 11.3 244 4.8 103800 86
2003-01-24 09:07:22 51°10.851 2°42.882 11.7 245 4.8 103790 86
2003-01-24 09:07:27 51°10.846 2°42.85 11.4 243 4.8 103790 86
2003-01-24 09:07:33 51°10.839 2°42.812 11.2 245 4.8 103800 86
2003-01-24 09:07:38 51°10.834 2°42.78 11 244 4.8 103800 86
2003-01-24 09:07:43 51°10.829 2°42.748 11.6 245 4.8 103800 86
2003-01-24 09:07:47 51°10.824 2°42.723 11.4 245 4.8 103800 86
2003-01-24 09:07:53 51°10.818 2°42.686 11.4 247 4.8 103800 86
2003-01-24 09:07:57 51°10.813 2°42.66 11.5 244 4.8 103800 86
2003-01-24 09:08:03 51°10.807 2°42.623 11.3 245 4.8 103800 87
2003-01-24 09:08:08 51°10.802 2°42.591 11.4 243 4.8 103800 87
2003-01-24 09:08:13 51°10.796 2°42.56 10.7 247 4.8 103790 87
2003-01-24 09:08:17 51°10.792 2°42.534 11.2 244 4.8 103790 87
2003-01-24 09:08:23 51°10.785 2°42.497 11.2 246 4.8 103800 87
2003-01-24 09:08:28 51°10.78 2°42.466 11.1 243 4.8 103800 87
2003-01-24 09:08:33 51°10.774 2°42.435 11.3 247 4.8 103800 87
2003-01-24 09:08:38 51°10.768 2°42.402 11.1 245 4.8 103800 87
2003-01-24 09:08:43 51°10.762 2°42.371 11.6 245 4.8 103800 87
2003-01-24 09:08:48 51°10.757 2°42.339 11 244 4.8 103800 87
2003-01-24 09:08:53 51°10.751 2°42.309 11.3 244 4.8 103800 87
2003-01-24 09:08:58 51°10.745 2°42.278 11.1 242 4.8 103800 87
2003-01-24 09:09:03 51°10.739 2°42.246 10.6 240 4.8 103800 87
2003-01-24 09:09:08 51°10.733 2°42.214 11.7 245 4.8 103800 87
2003-01-24 09:09:13 51°10.728 2°42.182 11.8 244 4.9 103800 87
2003-01-24 09:09:17 51°10.724 2°42.157 11.6 242 4.9 103800 87
2003-01-24 09:09:23 51°10.718 2°42.12 11.7 242 4.9 103810 87
2003-01-24 09:09:28 51°10.713 2°42.088 11.2 245 4.9 103810 87
2003-01-24 09:09:33 51°10.708 2°42.056 11.8 245 4.9 103800 87
2003-01-24 09:09:37 51°10.704 2°42.03 11.4 244 4.9 103800 87
2003-01-24 09:09:43 51°10.699 2°41.991 11.8 243 4.9 103810 87
2003-01-24 09:09:48 51°10.694 2°41.96 11.8 243 4.9 103810 87
2003-01-24 09:09:53 51°10.69 2°41.929 11.7 245 5 103800 87
2003-01-24 09:09:57 51°10.686 2°41.904 11.5 244 5 103800 87
2003-01-24 09:10:03 51°10.68 2°41.865 11.5 246 5 103800 87
2003-01-24 09:10:08 51°10.676 2°41.833 11 246 5 103800 87
2003-01-24 09:10:13 51°10.672 2°41.801 11 244 5 103800 87
2003-01-24 09:10:17 51°10.668 2°41.775 10.9 249 5 103800 87
2003-01-24 09:10:22 51°10.664 2°41.745 10.5 245 5 103800 87
2003-01-24 09:10:28 51°10.658 2°41.707 10.8 245 5 103800 87
2003-01-24 09:10:33 51°10.653 2°41.676 11.4 245 5 103810 87
2003-01-24 09:10:38 51°10.648 2°41.644 11.7 243 5 103810 87
2003-01-24 09:10:43 51°10.643 2°41.612 11.2 244 5 103800 88
2003-01-24 09:10:48 51°10.639 2°41.581 11.4 244 5 103800 88
2003-01-24 09:10:53 51°10.634 2°41.55 10.9 241 5 103810 88
2003-01-24 09:10:58 51°10.63 2°41.518 10.8 243 5 103810 88
2003-01-24 09:11:03 51°10.625 2°41.487 11.7 244 5 103800 88
2003-01-24 09:11:08 51°10.621 2°41.454 12.1 244 5 103800 88
2003-01-24 09:11:13 51°10.616 2°41.423 12 246 5 103810 88
2003-01-24 09:11:17 51°10.613 2°41.397 11.7 244 5 103810 88
2003-01-24 09:11:23 51°10.607 2°41.36 11.6 250 5.1 103810 88
2003-01-24 09:11:27 51°10.604 2°41.334 11.8 246 5.1 103810 88
2003-01-24 09:11:33 51°10.598 2°41.296 12.7 244 5.1 103800 88
2003-01-24 09:11:38 51°10.595 2°41.265 12.5 242 5.1 103800 88
2003-01-24 09:11:42 51°10.591 2°41.239 12.6 243 5.1 103800 88
2003-01-24 09:11:47 51°10.587 2°41.207 12 246 5.1 103800 88
2003-01-24 09:11:53 51°10.581 2°41.17 12 245 5.1 103810 88
2003-01-24 09:11:58 51°10.578 2°41.138 12.7 246 5.1 103810 88
2003-01-24 09:12:02 51°10.574 2°41.113 12.3 243 5.1 103810 88
2003-01-24 09:12:08 51°10.569 2°41.075 12.1 244 5.1 103810 88
2003-01-24 09:12:13 51°10.565 2°41.043 12.5 241 5.1 103810 88
2003-01-24 09:12:17 51°10.561 2°41.018 12.6 243 5.1 103810 88
2003-01-24 09:12:23 51°10.556 2°40.98 12.4 241 5.2 103810 88
2003-01-24 09:12:28 51°10.551 2°40.948 12.7 243 5.2 103810 88
2003-01-24 09:12:33 51°10.548 2°40.916 12.8 244 5.2 103810 88
2003-01-24 09:12:38 51°10.542 2°40.886 11.9 242 5.2 103810 88
2003-01-24 09:12:42 51°10.539 2°40.861 12.4 244 5.2 103810 88
2003-01-24 09:12:47 51°10.534 2°40.829 11.4 243 5.2 103810 88
2003-01-24 09:12:53 51°10.528 2°40.791 12 242 5.2 103800 88
2003-01-24 09:12:58 51°10.524 2°40.759 12.3 243 5.2 103800 88
2003-01-24 09:13:03 51°10.52 2°40.727 12.2 243 5.2 103810 88
2003-01-24 09:13:08 51°10.515 2°40.695 11.6 241 5.2 103810 88
2003-01-24 09:13:13 51°10.511 2°40.664 11.7 242 5.2 103810 88
2003-01-24 09:13:18 51°10.506 2°40.633 12.1 242 5.2 103810 88
2003-01-24 09:13:23 51°10.501 2°40.602 12.3 242 5.2 103810 88
2003-01-24 09:13:28 51°10.496 2°40.571 12 241 5.2 103810 88
2003-01-24 09:13:33 51°10.491 2°40.539 11.9 243 5.2 103810 88
2003-01-24 09:13:38 51°10.486 2°40.507 12.2 240 5.2 103810 88
2003-01-24 09:13:43 51°10.482 2°40.476 12.3 244 5.2 103810 88
2003-01-24 09:13:48 51°10.477 2°40.444 12.1 244 5.2 103810 88
2003-01-24 09:13:53 51°10.472 2°40.413 12.4 243 5.2 103810 88
2003-01-24 09:13:57 51°10.469 2°40.388 12.1 243 5.2 103810 88
2003-01-24 09:14:03 51°10.464 2°40.35 12 242 5.2 103810 88
2003-01-24 09:14:08 51°10.459 2°40.318 12.2 241 5.2 103810 88
2003-01-24 09:14:13 51°10.455 2°40.286 12 240 5.2 103810 88
2003-01-24 09:14:17 51°10.451 2°40.261 11.8 241 5.2 103810 88
2003-01-24 09:14:23 51°10.446 2°40.223 12 239 5.2 103810 88
2003-01-24 09:14:28 51°10.441 2°40.192 11.8 238 5.2 103810 88
2003-01-24 09:14:33 51°10.437 2°40.16 11.7 238 5.2 103810 88
2003-01-24 09:14:38 51°10.432 2°40.128 11.9 240 5.2 103810 88
2003-01-24 09:14:43 51°10.428 2°40.096 12.3 241 5.2 103810 88
2003-01-24 09:14:47 51°10.424 2°40.071 12.1 240 5.2 103810 88
2003-01-24 09:14:53 51°10.419 2°40.033 12.1 241 5.2 103810 88
2003-01-24 09:14:58 51°10.415 2°40.001 12.2 239 5.2 103810 88
2003-01-24 09:15:03 51°10.41 2°39.969 12.1 240 5.2 103810 88
2003-01-24 09:15:08 51°10.406 2°39.937 12.3 240 5.2 103810 88
2003-01-24 09:15:13 51°10.401 2°39.906 11.7 243 5.2 103810 88
2003-01-24 09:15:17 51°10.398 2°39.88 12.3 243 5.2 103810 88
2003-01-24 09:15:23 51°10.392 2°39.842 12.1 242 5.2 103810 88
2003-01-24 09:15:28 51°10.388 2°39.811 11.5 242 5.2 103810 88
2003-01-24 09:15:33 51°10.383 2°39.779 11.5 240 5.2 103820 88
2003-01-24 09:15:37 51°10.379 2°39.754 11.9 239 5.2 103820 88
2003-01-24 09:15:43 51°10.374 2°39.716 12.1 242 5.2 103810 89
2003-01-24 09:15:48 51°10.369 2°39.684 13 244 5.2 103810 89
2003-01-24 09:15:53 51°10.364 2°39.652 12.8 244 5.2 103800 89
2003-01-24 09:15:58 51°10.36 2°39.62 12.3 242 5.2 103800 89
2003-01-24 09:16:02 51°10.356 2°39.595 12.1 242 5.2 103800 89
2003-01-24 09:16:08 51°10.351 2°39.557 12 244 5.2 103800 89
2003-01-24 09:16:13 51°10.346 2°39.526 11.9 242 5.2 103810 89
2003-01-24 09:16:18 51°10.342 2°39.494 12.3 243 5.2 103810 89
2003-01-24 09:16:22 51°10.338 2°39.469 12.2 242 5.2 103810 89
2003-01-24 09:16:27 51°10.333 2°39.437 12.2 241 5.2 103810 89
2003-01-24 09:16:33 51°10.327 2°39.399 12.1 236 5.3 103810 89
2003-01-24 09:16:37 51°10.323 2°39.374 12.6 239 5.3 103810 89
2003-01-24 09:16:42 51°10.318 2°39.342 12 238 5.3 103820 89
2003-01-24 09:16:48 51°10.312 2°39.305 12.1 239 5.3 103820 89
2003-01-24 09:16:53 51°10.307 2°39.273 12.9 240 5.3 103810 89
2003-01-24 09:16:57 51°10.303 2°39.247 12.7 241 5.3 103810 89
2003-01-24 09:17:03 51°10.298 2°39.209 12.4 243 5.3 103810 89
2003-01-24 09:17:08 51°10.293 2°39.177 12.2 242 5.3 103810 89
2003-01-24 09:17:13 51°10.288 2°39.146 11.8 240 5.3 103820 89
2003-01-24 09:17:17 51°10.285 2°39.12 11.8 241 5.3 103820 89
2003-01-24 09:17:23 51°10.279 2°39.082 12.4 239 5.3 103810 89
2003-01-24 09:17:28 51°10.275 2°39.05 13 240 5.3 103810 89
2003-01-24 09:17:33 51°10.27 2°39.019 12.1 239 5.3 103810 89
2003-01-24 09:17:38 51°10.265 2°38.987 12.3 240 5.3 103810 89
2003-01-24 09:17:43 51°10.261 2°38.955 12.8 237 5.3 103810 89
2003-01-24 09:17:47 51°10.257 2°38.93 11.9 237 5.3 103810 89
2003-01-24 09:17:53 51°10.252 2°38.891 11.9 237 5.3 103820 89
2003-01-24 09:17:58 51°10.247 2°38.859 12.2 237 5.3 103820 89
2003-01-24 09:18:03 51°10.243 2°38.828 11.7 240 5.4 103820 89
2003-01-24 09:18:07 51°10.239 2°38.802 11.7 239 5.4 103820 89
2003-01-24 09:18:13 51°10.233 2°38.764 12.5 238 5.4 103820 89
2003-01-24 09:18:18 51°10.229 2°38.732 12 241 5.4 103820 89
2003-01-24 09:18:23 51°10.224 2°38.7 12 236 5.4 103820 89
2003-01-24 09:18:28 51°10.219 2°38.669 11.8 239 5.4 103820 89
2003-01-24 09:18:33 51°10.214 2°38.637 11.9 239 5.4 103820 89
2003-01-24 09:18:38 51°10.209 2°38.605 11.8 239 5.4 103820 89
2003-01-24 09:18:43 51°10.204 2°38.574 11.3 238 5.4 103820 89
2003-01-24 09:18:47 51°10.2 2°38.548 11.8 242 5.4 103820 89
2003-01-24 09:18:53 51°10.194 2°38.51 12.1 242 5.4 103820 89
2003-01-24 09:18:58 51°10.187 2°38.48 11.5 238 5.4 103820 89
2003-01-24 09:19:03 51°10.181 2°38.448 12.3 242 5.4 103820 89
2003-01-24 09:19:07 51°10.178 2°38.422 12 244 5.4 103820 89
2003-01-24 09:19:13 51°10.171 2°38.385 12 240 5.5 103820 89
2003-01-24 09:19:18 51°10.167 2°38.352 12.3 242 5.5 103820 89
2003-01-24 09:19:23 51°10.161 2°38.321 11.9 238 5.5 103820 89
2003-01-24 09:19:27 51°10.158 2°38.295 11.8 240 5.5 103820 89
2003-01-24 09:19:33 51°10.152 2°38.258 11.5 234 5.5 103820 89
2003-01-24 09:19:38 51°10.146 2°38.226 12.4 236 5.5 103820 89
2003-01-24 09:19:43 51°10.142 2°38.193 11.7 239 5.5 103830 89
2003-01-24 09:19:47 51°10.138 2°38.168 12 237 5.5 103830 89
2003-01-24 09:19:53 51°10.133 2°38.13 12.1 239 5.5 103820 89
2003-01-24 09:19:58 51°10.127 2°38.099 11.4 236 5.5 103820 89
2003-01-24 09:20:03 51°10.122 2°38.067 11.7 241 5.5 103820 89
2003-01-24 09:20:08 51°10.117 2°38.035 12.2 239 5.5 103820 89
2003-01-24 09:20:13 51°10.112 2°38.003 12.8 239 5.5 103820 89
2003-01-24 09:20:18 51°10.107 2°37.971 11.9 240 5.5 103820 89
2003-01-24 09:20:23 51°10.102 2°37.94 12 240 5.5 103810 89
2003-01-24 09:20:27 51°10.098 2°37.914 11.9 240 5.5 103810 89
2003-01-24 09:20:33 51°10.092 2°37.876 12.1 238 5.5 103820 89
2003-01-24 09:20:38 51°10.087 2°37.844 11.9 238 5.5 103820 89
2003-01-24 09:20:43 51°10.082 2°37.813 12 237 5.5 103820 89
2003-01-24 09:20:48 51°10.077 2°37.781 12.5 237 5.5 103820 89
2003-01-24 09:20:53 51°10.073 2°37.749 12.5 238 5.5 103820 89
2003-01-24 09:20:57 51°10.068 2°37.724 12.2 235 5.5 103820 89
2003-01-24 09:21:03 51°10.063 2°37.686 12 237 5.5 103820 89
2003-01-24 09:21:07 51°10.059 2°37.66 12.6 239 5.5 103820 89
2003-01-24 09:21:13 51°10.053 2°37.622 13 242 5.5 103820 89
2003-01-24 09:21:18 51°10.049 2°37.59 12.4 239 5.5 103820 89
2003-01-24 09:21:23 51°10.043 2°37.559 12.4 239 5.5 103820 89
2003-01-24 09:21:28 51°10.039 2°37.526 12 239 5.5 103820 89
2003-01-24 09:21:33 51°10.034 2°37.495 12.3 240 5.5 103820 89
2003-01-24 09:21:37 51°10.03 2°37.47 12.6 241 5.5 103820 89
2003-01-24 09:21:43 51°10.024 2°37.431 12.5 239 5.5 103820 89
2003-01-24 09:21:48 51°10.019 2°37.4 12.2 240 5.5 103820 89
2003-01-24 09:21:53 51°10.014 2°37.368 11.9 235 5.5 103810 89
2003-01-24 09:21:58 51°10.008 2°37.337 12.3 238 5.5 103810 89
2003-01-24 09:22:03 51°10.004 2°37.305 12.3 236 5.5 103820 89
2003-01-24 09:22:08 51°9.997 2°37.274 12.3 239 5.5 103820 89
2003-01-24 09:22:13 51°9.993 2°37.242 12.7 236 5.5 103820 89
2003-01-24 09:22:17 51°9.988 2°37.217 11.9 238 5.5 103820 89
2003-01-24 09:22:22 51°9.984 2°37.185 12.3 237 5.5 103820 89
2003-01-24 09:22:28 51°9.977 2°37.148 12.2 235 5.5 103820 89
2003-01-24 09:22:33 51°9.973 2°37.116 12.2 237 5.5 103830 89
2003-01-24 09:22:37 51°9.968 2°37.091 12.6 236 5.5 103830 89
2003-01-24 09:22:43 51°9.963 2°37.052 12.3 240 5.6 103820 89
2003-01-24 09:22:48 51°9.958 2°37.02 11.5 237 5.6 103820 89
2003-01-24 09:22:53 51°9.953 2°36.989 11.7 241 5.5 103830 89
2003-01-24 09:22:58 51°9.948 2°36.958 12.2 238 5.5 103830 89
2003-01-24 09:23:03 51°9.944 2°36.927 12 242 5.6 103830 89
2003-01-24 09:23:07 51°9.942 2°36.903 11.6 243 5.6 103830 89
2003-01-24 09:23:13 51°9.938 2°36.867 11.4 241 5.6 103820 89
2003-01-24 09:23:18 51°9.936 2°36.837 11.3 243 5.6 103820 89
2003-01-24 09:23:23 51°9.935 2°36.807 10.8 243 5.6 103820 89
2003-01-24 09:23:28 51°9.934 2°36.778 10.8 245 5.6 103820 89
2003-01-24 09:23:33 51°9.933 2°36.75 10.7 246 5.6 103830 89
2003-01-24 09:23:38 51°9.933 2°36.721 10.7 249 5.6 103830 89
2003-01-24 09:23:42 51°9.933 2°36.698 10.6 243 5.6 103830 89
2003-01-24 09:23:48 51°9.934 2°36.663 11.4 246 5.6 103830 89
2003-01-24 09:23:53 51°9.936 2°36.635 10.4 245 5.6 103830 89
2003-01-24 09:23:57 51°9.937 2°36.612 10.5 246 5.6 103830 89
2003-01-24 09:24:03 51°9.94 2°36.578 11 245 5.6 103830 89
2003-01-24 09:24:07 51°9.942 2°36.556 10.9 243 5.6 103830 89
2003-01-24 09:24:13 51°9.945 2°36.522 10.9 247 5.7 103830 89
2003-01-24 09:24:18 51°9.947 2°36.493 11.5 245 5.7 103830 89
2003-01-24 09:24:23 51°9.949 2°36.465 11.7 245 5.6 103830 89
2003-01-24 09:24:27 51°9.951 2°36.443 12.2 246 5.6 103830 89
2003-01-24 09:24:33 51°9.953 2°36.409 11.3 243 5.7 103830 89
2003-01-24 09:24:37 51°9.954 2°36.386 11.2 245 5.7 103830 89
2003-01-24 09:24:43 51°9.957 2°36.352 11.2 246 5.7 103830 89
2003-01-24 09:24:47 51°9.959 2°36.33 11.6 249 5.7 103830 89
2003-01-24 09:24:53 51°9.962 2°36.296 11.6 248 5.7 103820 89
2003-01-24 09:24:58 51°9.966 2°36.269 11.5 253 5.7 103820 89
2003-01-24 09:25:03 51°9.97 2°36.241 11.1 254 5.7 103820 89
2003-01-24 09:25:07 51°9.975 2°36.22 11.1 257 5.7 103820 89
2003-01-24 09:25:13 51°9.983 2°36.188 10.1 256 5.7 103820 89
2003-01-24 09:25:18 51°9.99 2°36.161 10.8 256 5.7 103820 89
2003-01-24 09:25:23 51°9.998 2°36.134 10.4 253 5.7 103820 89
2003-01-24 09:25:28 51°10.006 2°36.106 11.2 253 5.7 103820 89
2003-01-24 09:25:33 51°10.014 2°36.079 11 256 5.7 103820 89
2003-01-24 09:25:37 51°10.021 2°36.058 11.6 259 5.7 103820 89
2003-01-24 09:25:43 51°10.031 2°36.025 11.1 254 5.7 103820 89
2003-01-24 09:25:47 51°10.039 2°36.004 10.9 262 5.7 103820 89
2003-01-24 09:25:53 51°10.053 2°35.974 10.8 260 5.7 103820 89
2003-01-24 09:25:58 51°10.065 2°35.95 10.4 262 5.7 103820 89
2003-01-24 09:26:03 51°10.078 2°35.928 9.9 261 5.7 103820 89
2003-01-24 09:26:08 51°10.091 2°35.905 10.1 264 5.7 103820 89
2003-01-24 09:26:13 51°10.106 2°35.885 9.8 264 5.7 103810 89
2003-01-24 09:26:18 51°10.121 2°35.865 9.8 267 5.7 103810 89
2003-01-24 09:26:23 51°10.137 2°35.847 9.6 265 5.7 103810 89
2003-01-24 09:26:27 51°10.149 2°35.834 9.2 269 5.7 103810 89
2003-01-24 09:26:33 51°10.169 2°35.814 9 270 5.7 103820 89
2003-01-24 09:26:37 51°10.182 2°35.803 8.7 272 5.7 103820 89
2003-01-24 09:26:43 51°10.203 2°35.788 8.8 272 5.7 103820 89
2003-01-24 09:26:47 51°10.217 2°35.78 8 271 5.7 103820 89
2003-01-24 09:26:53 51°10.238 2°35.769 7.9 274 5.7 103820 89
2003-01-24 09:26:58 51°10.256 2°35.762 7.5 274 5.7 103820 89
2003-01-24 09:27:03 51°10.275 2°35.758 7.1 276 5.6 103820 89
2003-01-24 09:27:07 51°10.289 2°35.756 6.2 280 5.6 103820 89
2003-01-24 09:27:13 51°10.312 2°35.755 6.4 280 5.6 103830 89
2003-01-24 09:27:18 51°10.33 2°35.757 5.5 267 5.6 103830 89
2003-01-24 09:27:23 51°10.348 2°35.761 5.6 270 5.6 103830 89
2003-01-24 09:27:28 51°10.367 2°35.767 4.9 275 5.6 103830 89
2003-01-24 09:27:33 51°10.384 2°35.775 4.4 275 5.6 103830 89
2003-01-24 09:27:38 51°10.402 2°35.786 3.9 262 5.6 103830 89
2003-01-24 09:27:42 51°10.415 2°35.795 4.1 269 5.6 103840 89
2003-01-24 09:27:48 51°10.435 2°35.81 4.7 262 5.6 103840 89
2003-01-24 09:27:53 51°10.452 2°35.823 4.6 262 5.6 103830 89
2003-01-24 09:27:57 51°10.466 2°35.833 5 268 5.6 103830 89
2003-01-24 09:28:03 51°10.486 2°35.848 4.4 269 5.7 103840 89
2003-01-24 09:28:08 51°10.503 2°35.86 4.4 267 5.7 103840 89
2003-01-24 09:28:13 51°10.52 2°35.873 4.6 267 5.7 103840 89
2003-01-24 09:28:17 51°10.533 2°35.883 4.3 266 5.7 103840 89
2003-01-24 09:28:23 51°10.553 2°35.899 4.3 262 5.7 103840 89
2003-01-24 09:28:28 51°10.569 2°35.913 4.4 266 5.7 103840 89
2003-01-24 09:28:33 51°10.586 2°35.928 4.3 265 5.7 103840 89
2003-01-24 09:28:37 51°10.599 2°35.939 4.1 264 5.7 103840 89
2003-01-24 09:28:43 51°10.619 2°35.955 4.3 270 5.7 103840 89
2003-01-24 09:28:48 51°10.636 2°35.969 3.6 265 5.7 103840 89
2003-01-24 09:28:53 51°10.653 2°35.982 4.2 268 5.7 103840 89
2003-01-24 09:28:57 51°10.666 2°35.992 4 269 5.7 103840 89
2003-01-24 09:29:03 51°10.687 2°36.008 4.3 267 5.7 103840 89
2003-01-24 09:29:07 51°10.701 2°36.019 4 267 5.7 103840 89
2003-01-24 09:29:13 51°10.721 2°36.034 4.2 254 5.7 103840 89
2003-01-24 09:29:18 51°10.738 2°36.047 4.7 269 5.7 103840 89
2003-01-24 09:29:23 51°10.755 2°36.06 4.7 260 5.7 103840 89
2003-01-24 09:29:27 51°10.769 2°36.071 4.5 259 5.7 103840 89
2003-01-24 09:29:33 51°10.789 2°36.087 4.3 260 5.7 103840 89
2003-01-24 09:29:38 51°10.806 2°36.101 4.3 256 5.7 103840 89
2003-01-24 09:29:43 51°10.822 2°36.115 4.6 268 5.7 103840 89
2003-01-24 09:29:46 51°10.833 2°36.123 4.2 262 5.7 103840 89
2003-01-24 09:29:53 51°10.856 2°36.143 4.3 272 5.7 103840 89
2003-01-24 09:29:57 51°10.87 2°36.155 4.1 265 5.7 103840 89
2003-01-24 09:30:03 51°10.89 2°36.172 4.2 266 5.7 103840 89
2003-01-24 09:30:08 51°10.907 2°36.186 4.1 266 5.7 103840 89
2003-01-24 09:30:13 51°10.923 2°36.201 4.3 266 5.7 103840 89
2003-01-24 09:30:17 51°10.937 2°36.212 4.1 268 5.7 103840 89
2003-01-24 09:30:23 51°10.957 2°36.229 3.9 267 5.7 103840 89
2003-01-24 09:30:27 51°10.971 2°36.241 4.2 271 5.7 103840 89
2003-01-24 09:30:33 51°10.991 2°36.258 4 264 5.8 103840 89
2003-01-24 09:30:38 51°11.007 2°36.272 3.8 264 5.8 103840 89
2003-01-24 09:30:43 51°11.024 2°36.287 3.9 263 5.8 103840 88
2003-01-24 09:30:48 51°11.041 2°36.301 3.8 259 5.8 103840 88
2003-01-24 09:30:53 51°11.058 2°36.316 3.9 256 5.7 103840 88
2003-01-24 09:30:58 51°11.074 2°36.33 4.5 257 5.7 103840 88
2003-01-24 09:31:03 51°11.091 2°36.344 4.1 259 5.7 103840 88
2003-01-24 09:31:07 51°11.104 2°36.356 4 263 5.7 103840 88
2003-01-24 09:31:13 51°11.124 2°36.373 4.8 264 5.8 103850 88
2003-01-24 09:31:17 51°11.138 2°36.384 4.3 262 5.8 103850 88
2003-01-24 09:31:23 51°11.158 2°36.401 4.3 266 5.8 103840 88
2003-01-24 09:31:28 51°11.175 2°36.415 4.1 268 5.8 103840 88
2003-01-24 09:31:33 51°11.192 2°36.429 4.2 267 5.8 103840 88
2003-01-24 09:31:38 51°11.208 2°36.443 3.8 259 5.8 103840 88
2003-01-24 09:31:43 51°11.225 2°36.457 3.9 259 5.8 103840 88
2003-01-24 09:31:48 51°11.242 2°36.471 3.6 267 5.8 103840 88
2003-01-24 09:31:53 51°11.258 2°36.485 3.8 265 5.8 103840 88
2003-01-24 09:31:58 51°11.275 2°36.499 3.7 263 5.8 103840 88
2003-01-24 09:32:03 51°11.291 2°36.513 3.7 269 5.8 103840 88
2003-01-24 09:32:08 51°11.308 2°36.527 3.9 262 5.8 103840 88
2003-01-24 09:32:13 51°11.325 2°36.54 3.9 267 5.8 103840 88
2003-01-24 09:32:17 51°11.339 2°36.551 4.3 262 5.8 103840 88
2003-01-24 09:32:23 51°11.358 2°36.567 3.8 264 5.7 103840 88
2003-01-24 09:32:28 51°11.375 2°36.581 4.3 263 5.7 103840 88
2003-01-24 09:32:33 51°11.392 2°36.595 4.1 259 5.8 103850 88
2003-01-24 09:32:37 51°11.405 2°36.606 4.3 262 5.8 103850 88
2003-01-24 09:32:43 51°11.425 2°36.623 4.2 259 5.8 103840 88
2003-01-24 09:32:47 51°11.438 2°36.634 4.1 263 5.8 103840 88
2003-01-24 09:32:53 51°11.458 2°36.651 3.8 258 5.8 103840 88
2003-01-24 09:32:58 51°11.475 2°36.666 3.3 267 5.8 103840 88
2003-01-24 09:33:03 51°11.491 2°36.681 3.8 257 5.8 103850 88
2003-01-24 09:33:07 51°11.503 2°36.693 3.5 258 5.8 103850 88
2003-01-24 09:33:13 51°11.523 2°36.712 3.4 257 5.8 103840 88
2003-01-24 09:33:17 51°11.535 2°36.724 3.9 258 5.8 103840 88
2003-01-24 09:33:23 51°11.555 2°36.742 4.1 259 5.8 103840 88
2003-01-24 09:33:27 51°11.567 2°36.755 3.4 264 5.8 103840 88
2003-01-24 09:33:33 51°11.586 2°36.773 3.6 257 5.9 103840 88
2003-01-24 09:33:38 51°11.602 2°36.789 4.2 263 5.9 103840 88
2003-01-24 09:33:42 51°11.615 2°36.801 4.1 258 5.9 103840 88
2003-01-24 09:33:47 51°11.631 2°36.817 3.9 254 5.9 103840 88
2003-01-24 09:33:53 51°11.65 2°36.835 3.9 259 5.8 103840 88
2003-01-24 09:33:57 51°11.663 2°36.848 3.8 265 5.8 103840 88
2003-01-24 09:34:03 51°11.682 2°36.866 3.6 260 5.9 103840 88
2003-01-24 09:34:07 51°11.695 2°36.878 3.8 268 5.9 103840 88
2003-01-24 09:34:13 51°11.714 2°36.896 3.8 262 5.9 103840 88
2003-01-24 09:34:17 51°11.727 2°36.909 4 264 5.9 103840 88
2003-01-24 09:34:23 51°11.746 2°36.928 3.6 261 5.9 103840 88
2003-01-24 09:34:28 51°11.762 2°36.943 4 257 5.9 103840 88
2003-01-24 09:34:33 51°11.777 2°36.959 3.8 258 5.9 103840 88
2003-01-24 09:34:38 51°11.793 2°36.974 4.2 265 5.9 103840 88
2003-01-24 09:34:43 51°11.809 2°36.99 4.2 265 5.9 103840 88
2003-01-24 09:34:48 51°11.825 2°37.005 4.3 260 5.9 103840 88
2003-01-24 09:34:53 51°11.841 2°37.02 4.3 259 5.9 103840 88
2003-01-24 09:34:58 51°11.858 2°37.035 4.6 259 5.9 103840 88
2003-01-24 09:35:03 51°11.874 2°37.051 4.2 262 5.9 103850 88
2003-01-24 09:35:07 51°11.886 2°37.063 4.2 263 5.9 103850 88
2003-01-24 09:35:13 51°11.905 2°37.081 4.1 265 5.9 103840 88
2003-01-24 09:35:17 51°11.919 2°37.093 4.2 265 5.9 103840 88
2003-01-24 09:35:22 51°11.935 2°37.108 4.4 258 6 103840 88
2003-01-24 09:35:27 51°11.951 2°37.124 3.7 269 6 103840 88
2003-01-24 09:35:33 51°11.97 2°37.141 4.4 269 5.9 103850 88
2003-01-24 09:35:38 51°11.987 2°37.156 4.2 272 5.9 103850 88
2003-01-24 09:35:42 51°12 2°37.166 4.5 269 6 103840 88
2003-01-24 09:35:48 51°12.021 2°37.18 4.6 271 6 103840 88
2003-01-24 09:35:53 51°12.038 2°37.191 4.6 277 6 103840 88
2003-01-24 09:35:58 51°12.055 2°37.202 4.4 271 6 103840 88
2003-01-24 09:36:03 51°12.073 2°37.214 4.6 276 5.9 103840 88
2003-01-24 09:36:08 51°12.09 2°37.225 4.6 268 5.9 103840 88
2003-01-24 09:36:13 51°12.108 2°37.236 4.8 271 5.9 103840 88
2003-01-24 09:36:17 51°12.121 2°37.245 4.6 275 5.9 103840 88
2003-01-24 09:36:23 51°12.143 2°37.258 4.2 268 6 103840 88
2003-01-24 09:36:28 51°12.16 2°37.268 3.8 266 6 103840 88
2003-01-24 09:36:33 51°12.177 2°37.28 4.1 271 6 103840 88
2003-01-24 09:36:37 51°12.191 2°37.289 4.5 269 6 103840 88
2003-01-24 09:36:43 51°12.212 2°37.303 5 271 6 103840 88
2003-01-24 09:36:47 51°12.226 2°37.313 4.9 279 6 103840 88
2003-01-24 09:36:53 51°12.247 2°37.326 4.5 271 6 103840 88
2003-01-24 09:36:58 51°12.264 2°37.338 4.6 261 6 103840 88
2003-01-24 09:37:03 51°12.281 2°37.35 4.6 267 6 103850 88
2003-01-24 09:37:08 51°12.299 2°37.361 4.4 268 6 103850 88
2003-01-24 09:37:13 51°12.316 2°37.372 4.5 277 6 103840 88
2003-01-24 09:37:17 51°12.33 2°37.382 4.3 275 6 103840 88
2003-01-24 09:37:23 51°12.351 2°37.395 3.9 271 6 103840 88
2003-01-24 09:37:28 51°12.368 2°37.407 4.2 273 6 103840 88
2003-01-24 09:37:33 51°12.386 2°37.419 4.2 255 6 103840 88
2003-01-24 09:37:38 51°12.403 2°37.43 4.3 264 6 103840 88
2003-01-24 09:37:43 51°12.42 2°37.442 3.9 259 6 103830 88
2003-01-24 09:37:48 51°12.438 2°37.454 4.5 267 6 103830 88
2003-01-24 09:37:53 51°12.455 2°37.465 4.5 273 6 103850 88
2003-01-24 09:37:57 51°12.469 2°37.476 4.3 277 6 103850 88
2003-01-24 09:38:02 51°12.487 2°37.487 4.4 270 6 103840 88
2003-01-24 09:38:08 51°12.507 2°37.501 4.3 271 6 103840 88
2003-01-24 09:38:13 51°12.525 2°37.512 3.7 267 6 103840 88
2003-01-24 09:38:17 51°12.539 2°37.522 4 263 6 103840 88
2003-01-24 09:38:23 51°12.559 2°37.537 4 261 6 103840 88
2003-01-24 09:38:28 51°12.577 2°37.548 4.1 252 6 103840 88
2003-01-24 09:38:33 51°12.594 2°37.561 4.2 259 6 103840 88
2003-01-24 09:38:38 51°12.612 2°37.572 4.2 270 6 103840 88
2003-01-24 09:38:43 51°12.629 2°37.584 4.5 272 6 103840 88
2003-01-24 09:38:48 51°12.646 2°37.596 4.6 266 6 103840 88
2003-01-24 09:38:53 51°12.664 2°37.608 4.3 271 6.1 103840 88
2003-01-24 09:38:57 51°12.678 2°37.617 4.7 268 6.1 103840 88
2003-01-24 09:39:03 51°12.699 2°37.632 4.7 260 6.1 103830 88
2003-01-24 09:39:08 51°12.716 2°37.643 3.9 263 6.1 103830 88
2003-01-24 09:39:13 51°12.733 2°37.655 3.8 268 6.1 103850 88
2003-01-24 09:39:18 51°12.751 2°37.667 4.1 267 6.1 103850 88
2003-01-24 09:39:23 51°12.769 2°37.678 4.2 261 6.1 103840 88
2003-01-24 09:39:27 51°12.783 2°37.688 3.9 266 6.1 103840 88
2003-01-24 09:39:33 51°12.803 2°37.703 3.9 261 6.1 103840 88
2003-01-24 09:39:38 51°12.821 2°37.714 3.8 259 6.1 103840 88
2003-01-24 09:39:43 51°12.838 2°37.727 4.3 258 6.1 103830 88
2003-01-24 09:39:48 51°12.855 2°37.739 4 263 6.1 103830 88
2003-01-24 09:39:53 51°12.873 2°37.751 4 268 6.1 103840 88
2003-01-24 09:39:57 51°12.887 2°37.761 3.5 265 6.1 103840 88
2003-01-24 09:40:03 51°12.906 2°37.778 3.3 266 6.1 103840 88
2003-01-24 09:40:08 51°12.922 2°37.794 3.4 261 6.1 103840 88
2003-01-24 09:40:13 51°12.938 2°37.809 3.4 250 6.1 103840 88
2003-01-24 09:40:17 51°12.951 2°37.822 3.1 256 6.1 103840 88
2003-01-24 09:40:23 51°12.97 2°37.842 3.3 248 6.1 103840 88
2003-01-24 09:40:27 51°12.982 2°37.855 4.1 251 6.1 103840 88
2003-01-24 09:40:33 51°13.001 2°37.876 3.7 264 6.1 103850 88
2003-01-24 09:40:37 51°13.014 2°37.888 3.5 255 6.1 103850 88
2003-01-24 09:40:43 51°13.032 2°37.908 3 257 6.1 103840 88
2003-01-24 09:40:48 51°13.048 2°37.924 3.1 245 6.1 103840 88